createdAt,value
2023-03-03T00:00:32.106Z,54.00
2023-03-03T00:02:35.997Z,53.87
2023-03-03T00:04:37.928Z,53.90
2023-03-03T00:06:39.844Z,53.88
2023-03-03T00:08:42.591Z,53.77
2023-03-03T00:10:45.413Z,53.92
2023-03-03T00:12:49.525Z,54.03
2023-03-03T00:14:51.902Z,53.86
2023-03-03T00:16:55.726Z,53.64
2023-03-03T00:18:58.036Z,53.91
2023-03-03T00:21:01.606Z,53.92
2023-03-03T00:23:09.881Z,53.99
2023-03-03T00:25:18.086Z,54.22
2023-03-03T00:27:24.527Z,53.95
2023-03-03T00:29:31.057Z,53.70
2023-03-03T00:31:35.022Z,53.51
2023-03-03T00:33:46.143Z,53.30
2023-03-03T00:35:48.124Z,53.21
2023-03-03T00:37:55.057Z,53.50
2023-03-03T00:40:03.814Z,52.77
2023-03-03T00:42:12.013Z,53.44
2023-03-03T00:44:26.736Z,53.10
2023-03-03T00:46:37.143Z,53.32
2023-03-03T00:48:42.064Z,53.64
2023-03-03T00:50:44.614Z,53.59
2023-03-03T00:52:55.146Z,53.63
2023-03-03T00:54:58.468Z,53.67
2023-03-03T00:57:00.428Z,53.09
2023-03-03T00:59:02.339Z,52.89
2023-03-03T01:01:04.816Z,52.66
2023-03-03T01:03:17.260Z,52.77
2023-03-03T01:05:19.904Z,53.32
2023-03-03T01:07:22.143Z,53.07
2023-03-03T01:09:24.353Z,52.95
2023-03-03T01:11:28.706Z,53.34
2023-03-03T01:13:37.920Z,53.14
2023-03-03T01:15:41.170Z,53.03
2023-03-03T01:17:43.412Z,52.90
2023-03-03T01:19:45.222Z,53.01
2023-03-03T01:21:47.178Z,52.74
2023-03-03T01:23:49.022Z,52.89
2023-03-03T01:25:53.225Z,52.93
2023-03-03T01:27:55.140Z,52.78
2023-03-03T01:29:57.673Z,52.59
2023-03-03T01:31:59.584Z,52.36
2023-03-03T01:34:01.502Z,52.42
2023-03-03T01:36:04.238Z,52.09
2023-03-03T01:38:08.513Z,52.05
2023-03-03T01:40:16.849Z,52.30
2023-03-03T01:42:19.680Z,52.26
2023-03-03T01:44:21.538Z,52.38
2023-03-03T01:46:25.168Z,52.13
2023-03-03T01:48:33.172Z,51.60
2023-03-03T01:50:41.190Z,51.72
2023-03-03T01:52:46.790Z,52.02
2023-03-03T01:54:55.616Z,52.29
2023-03-03T01:57:01.408Z,51.97
2023-03-03T01:59:09.763Z,52.22
2023-03-03T02:01:15.964Z,51.98
2023-03-03T02:03:22.586Z,51.80
2023-03-03T02:05:25.297Z,52.01
2023-03-03T02:07:29.126Z,51.69
2023-03-03T02:09:39.940Z,52.03
2023-03-03T02:11:44.449Z,51.60
2023-03-03T02:13:46.340Z,51.56
2023-03-03T02:15:48.773Z,51.83
2023-03-03T02:17:54.971Z,51.74
2023-03-03T02:20:06.861Z,51.75
2023-03-03T02:22:08.840Z,51.96
2023-03-03T02:24:15.178Z,51.92
2023-03-03T02:26:22.783Z,51.63
2023-03-03T02:28:28.378Z,52.09
2023-03-03T02:30:37.164Z,51.87
2023-03-03T02:32:38.974Z,52.08
2023-03-03T02:34:46.703Z,52.01
2023-03-03T02:36:48.537Z,52.06
2023-03-03T02:38:53.965Z,52.01
2023-03-03T02:40:59.496Z,52.03
2023-03-03T02:43:04.250Z,51.84
2023-03-03T02:45:10.603Z,52.17
2023-03-03T02:47:12.439Z,52.02
2023-03-03T02:49:19.799Z,51.72
2023-03-03T02:51:23.895Z,52.04
2023-03-03T02:53:25.750Z,52.02
2023-03-03T02:55:29.954Z,51.87
2023-03-03T02:57:31.796Z,52.34
2023-03-03T02:59:33.628Z,52.21
2023-03-03T03:01:37.267Z,51.75
2023-03-03T03:03:39.617Z,51.75
2023-03-03T03:05:41.585Z,51.73
2023-03-03T03:07:43.437Z,52.16
2023-03-03T03:09:45.254Z,52.22
2023-03-03T03:11:47.157Z,51.89
2023-03-03T03:13:49.293Z,51.88
2023-03-03T03:15:51.532Z,51.56
2023-03-03T03:17:53.352Z,51.61
2023-03-03T03:19:55.176Z,51.59
2023-03-03T03:21:57.007Z,51.70
2023-03-03T03:23:59.208Z,51.95
2023-03-03T03:26:01.088Z,51.44
2023-03-03T03:28:03.119Z,51.92
2023-03-03T03:30:05.649Z,52.25
2023-03-03T03:32:07.577Z,51.99
2023-03-03T03:34:09.659Z,51.84
2023-03-03T03:36:11.889Z,52.21
2023-03-03T03:38:14.933Z,52.09
2023-03-03T03:40:16.889Z,52.26
2023-03-03T03:42:18.729Z,52.54
2023-03-03T03:44:20.621Z,52.21
2023-03-03T03:46:22.566Z,52.16
2023-03-03T03:48:24.468Z,52.14
2023-03-03T03:50:26.503Z,52.14
2023-03-03T03:52:28.423Z,51.90
2023-03-03T03:54:30.257Z,52.29
2023-03-03T03:56:32.077Z,52.29
2023-03-03T03:58:36.317Z,52.35
2023-03-03T04:00:41.189Z,52.04
2023-03-03T04:02:43.209Z,51.93
2023-03-03T04:04:45.289Z,51.93
2023-03-03T04:06:47.236Z,51.73
2023-03-03T04:08:49.105Z,51.41
2023-03-03T04:10:53.166Z,51.75
2023-03-03T04:12:55.353Z,51.80
2023-03-03T04:14:58.986Z,51.35
2023-03-03T04:17:00.895Z,51.89
2023-03-03T04:19:03.265Z,51.54
2023-03-03T04:21:06.002Z,51.86
2023-03-03T04:23:07.830Z,51.79
2023-03-03T04:25:15.925Z,51.82
2023-03-03T04:27:17.779Z,52.15
2023-03-03T04:29:19.641Z,52.63
2023-03-03T04:31:21.629Z,52.07
2023-03-03T04:33:23.477Z,51.85
2023-03-03T04:35:25.479Z,51.45
2023-03-03T04:37:27.427Z,51.43
2023-03-03T04:39:29.987Z,51.49
2023-03-03T04:41:31.932Z,51.75
2023-03-03T04:43:33.893Z,51.85
2023-03-03T04:45:35.891Z,51.57
2023-03-03T04:47:40.172Z,52.03
2023-03-03T04:49:42.053Z,51.75
2023-03-03T04:51:44.034Z,51.72
2023-03-03T04:53:45.887Z,51.63
2023-03-03T04:55:50.933Z,51.83
2023-03-03T04:57:52.871Z,51.65
2023-03-03T04:59:54.889Z,51.69
2023-03-03T05:01:56.783Z,52.02
2023-03-03T05:04:18.493Z,52.02
2023-03-03T05:06:20.712Z,51.96
2023-03-03T05:08:23.186Z,52.20
2023-03-03T05:10:25.118Z,51.85
2023-03-03T05:12:27.374Z,51.83
2023-03-03T05:14:29.183Z,51.99
2023-03-03T05:16:31.167Z,52.25
2023-03-03T05:18:33.065Z,52.34
2023-03-03T05:20:34.881Z,52.48
2023-03-03T05:22:36.658Z,52.44
2023-03-03T05:24:39.277Z,52.53
2023-03-03T05:26:43.188Z,52.40
2023-03-03T05:28:45.801Z,52.69
2023-03-03T05:30:50.376Z,52.34
2023-03-03T05:32:52.441Z,52.39
2023-03-03T05:34:54.928Z,52.39
2023-03-03T05:36:57.523Z,52.51
2023-03-03T05:38:59.961Z,52.40
2023-03-03T05:41:05.799Z,52.50
2023-03-03T05:43:08.435Z,52.57
2023-03-03T05:45:12.600Z,51.98
2023-03-03T05:47:16.380Z,52.52
2023-03-03T05:49:18.932Z,52.21
2023-03-03T05:51:20.933Z,52.35
2023-03-03T05:53:25.201Z,52.56
2023-03-03T05:55:27.502Z,52.27
2023-03-03T05:57:29.770Z,52.33
2023-03-03T05:59:31.804Z,52.24
2023-03-03T06:01:34.069Z,52.29
2023-03-03T06:03:36.113Z,52.43
2023-03-03T06:05:38.177Z,52.26
2023-03-03T06:07:40.881Z,52.27
2023-03-03T06:09:42.849Z,52.26
2023-03-03T06:11:45.066Z,52.25
2023-03-03T06:13:47.163Z,52.04
2023-03-03T06:15:49.216Z,52.40
2023-03-03T06:17:51.600Z,52.31
2023-03-03T06:19:53.770Z,52.51
2023-03-03T06:22:00.615Z,52.70
2023-03-03T06:24:03.548Z,52.66
2023-03-03T06:26:06.213Z,52.47
2023-03-03T06:28:09.375Z,52.49
2023-03-03T06:30:13.515Z,52.79
2023-03-03T06:32:18.141Z,52.62
2023-03-03T06:34:20.409Z,52.50
2023-03-03T06:36:23.825Z,52.80
2023-03-03T06:38:30.254Z,52.79
2023-03-03T06:40:37.024Z,52.63
2023-03-03T06:42:40.737Z,52.38
2023-03-03T06:44:42.459Z,52.41
2023-03-03T06:46:47.226Z,52.23
2023-03-03T06:48:53.117Z,52.30
2023-03-03T06:51:00.893Z,51.93
2023-03-03T06:53:15.484Z,51.99
2023-03-03T06:55:29.932Z,52.38
2023-03-03T06:57:35.622Z,52.13
2023-03-03T06:59:40.636Z,52.32
2023-03-03T07:01:44.705Z,51.84
2023-03-03T07:03:54.821Z,52.47
2023-03-03T07:06:01.067Z,52.31
2023-03-03T07:08:13.963Z,52.21
2023-03-03T07:10:25.242Z,52.73
2023-03-03T07:12:32.265Z,52.66
2023-03-03T07:15:03.522Z,52.15
2023-03-03T07:17:17.436Z,51.80
2023-03-03T07:19:33.576Z,51.56
2023-03-03T07:21:38.102Z,51.65
2023-03-03T07:23:42.900Z,51.69
2023-03-03T07:25:48.939Z,51.99
2023-03-03T07:27:52.019Z,52.39
2023-03-03T07:30:02.591Z,52.28
2023-03-03T07:32:35.380Z,51.84
2023-03-03T07:34:46.402Z,51.95
2023-03-03T07:37:01.174Z,52.24
2023-03-03T07:39:16.874Z,52.15
2023-03-03T07:41:34.111Z,52.32
2023-03-03T07:43:51.287Z,52.49
2023-03-03T07:46:14.493Z,52.60
2023-03-03T07:48:24.232Z,52.63
2023-03-03T07:50:27.950Z,53.06
2023-03-03T07:52:52.161Z,52.91
2023-03-03T07:55:31.152Z,53.22
2023-03-03T07:57:28.172Z,53.08
2023-03-03T07:59:30.792Z,53.16
2023-03-03T08:01:40.021Z,53.33
2023-03-03T08:03:46.945Z,53.64
2023-03-03T08:05:50.512Z,53.56
2023-03-03T08:07:52.915Z,53.57
2023-03-03T08:09:59.876Z,53.27
2023-03-03T08:12:08.133Z,53.56
2023-03-03T08:14:13.630Z,53.51
2023-03-03T08:16:16.740Z,53.21
2023-03-03T08:18:25.283Z,53.47
2023-03-03T08:20:39.415Z,53.19
2023-03-03T08:22:42.998Z,53.26
2023-03-03T08:24:45.441Z,52.81
2023-03-03T08:26:47.586Z,53.00
2023-03-03T08:28:50.613Z,53.25
2023-03-03T08:31:05.502Z,53.49
2023-03-03T08:33:08.693Z,53.23
2023-03-03T08:35:14.315Z,53.05
2023-03-03T08:37:16.421Z,52.93
2023-03-03T08:39:18.562Z,52.61
2023-03-03T08:41:20.883Z,52.70
2023-03-03T08:43:23.280Z,52.70
2023-03-03T08:45:33.585Z,52.56
2023-03-03T08:47:35.750Z,52.45
2023-03-03T08:49:37.960Z,53.28
2023-03-03T08:51:40.633Z,52.87
2023-03-03T08:53:42.955Z,53.05
2023-03-03T08:55:45.430Z,52.60
2023-03-03T08:57:47.756Z,52.60
2023-03-03T08:59:50.159Z,52.87
2023-03-03T09:01:52.610Z,51.79
2023-03-03T09:03:55.469Z,51.69
2023-03-03T09:05:57.860Z,51.96
2023-03-03T09:08:00.994Z,51.62
2023-03-03T09:10:04.573Z,51.58
2023-03-03T09:12:15.694Z,51.12
2023-03-03T09:14:20.835Z,51.75
2023-03-03T09:16:23.170Z,51.08
2023-03-03T09:18:32.567Z,51.19
2023-03-03T09:20:38.242Z,51.05
2023-03-03T09:22:40.447Z,51.04
2023-03-03T09:24:43.200Z,51.24
2023-03-03T09:26:47.531Z,51.02
2023-03-03T09:28:50.075Z,51.38
2023-03-03T09:30:53.756Z,50.50
2023-03-03T09:32:57.682Z,50.51
2023-03-03T09:35:09.021Z,49.99
2023-03-03T09:37:20.380Z,49.55
2023-03-03T09:39:25.607Z,50.00
2023-03-03T09:41:31.342Z,49.91
2023-03-03T09:43:42.218Z,49.46
2023-03-03T09:45:50.075Z,49.92
2023-03-03T09:47:56.281Z,49.55
2023-03-03T09:50:10.724Z,49.58
2023-03-03T09:52:19.111Z,49.91
2023-03-03T09:54:24.892Z,49.52
2023-03-03T09:56:34.153Z,49.80
2023-03-03T09:58:45.895Z,49.22
2023-03-03T10:00:51.578Z,48.75
2023-03-03T10:02:57.980Z,48.76
2023-03-03T10:05:14.624Z,48.62
2023-03-03T10:07:20.323Z,49.26
2023-03-03T10:09:28.538Z,48.84
2023-03-03T10:11:40.204Z,49.13
2023-03-03T10:13:51.777Z,49.22
2023-03-03T10:15:58.448Z,49.22
2023-03-03T10:18:06.891Z,49.10
2023-03-03T10:20:10.736Z,48.85
2023-03-03T10:22:13.661Z,48.27
2023-03-03T10:24:22.097Z,47.99
2023-03-03T10:26:43.925Z,48.07
2023-03-03T10:28:58.880Z,48.33
2023-03-03T10:31:14.251Z,48.80
2023-03-03T10:33:24.453Z,48.76
2023-03-03T10:35:40.008Z,47.93
2023-03-03T10:37:46.660Z,48.18
2023-03-03T10:39:59.566Z,47.52
2023-03-03T10:42:04.514Z,47.68
2023-03-03T10:44:11.295Z,47.95
2023-03-03T10:46:26.387Z,48.00
2023-03-03T10:48:32.676Z,47.44
2023-03-03T10:50:46.069Z,47.94
2023-03-03T10:52:53.683Z,47.53
2023-03-03T10:55:00.263Z,47.53
2023-03-03T10:57:08.528Z,46.42
2023-03-03T10:59:14.135Z,46.87
2023-03-03T11:01:24.572Z,46.71
2023-03-03T11:03:33.326Z,46.41
2023-03-03T11:05:40.354Z,46.56
2023-03-03T11:07:47.338Z,46.01
2023-03-03T11:10:01.256Z,46.27
2023-03-03T11:12:12.954Z,46.04
2023-03-03T11:14:19.322Z,46.09
2023-03-03T11:16:33.480Z,45.60
2023-03-03T11:18:48.434Z,45.56
2023-03-03T11:20:55.769Z,45.02
2023-03-03T11:23:01.596Z,45.12
2023-03-03T11:25:13.572Z,45.48
2023-03-03T11:27:23.529Z,45.61
2023-03-03T11:29:34.282Z,44.91
2023-03-03T11:31:42.579Z,45.59
2023-03-03T11:33:51.570Z,44.39
2023-03-03T11:36:00.006Z,44.28
2023-03-03T11:38:08.304Z,44.41
2023-03-03T11:40:16.922Z,44.14
2023-03-03T11:42:25.305Z,43.63
2023-03-03T11:44:34.822Z,44.08
2023-03-03T11:46:45.235Z,44.30
2023-03-03T11:48:57.692Z,44.43
2023-03-03T11:51:06.434Z,44.30
2023-03-03T11:53:11.977Z,44.42
2023-03-03T11:55:34.922Z,44.09
2023-03-03T11:57:42.333Z,43.73
2023-03-03T11:59:54.065Z,43.52
2023-03-03T12:02:00.735Z,42.69
2023-03-03T12:04:04.814Z,43.03
2023-03-03T12:06:10.330Z,43.08
2023-03-03T12:08:24.053Z,43.30
2023-03-03T12:10:32.773Z,43.26
2023-03-03T12:12:43.272Z,43.26
2023-03-03T12:14:55.025Z,43.02
2023-03-03T12:17:01.661Z,42.62
2023-03-03T12:19:10.073Z,43.32
2023-03-03T12:21:15.632Z,42.99
2023-03-03T12:23:30.234Z,43.09
2023-03-03T12:25:44.695Z,43.19
2023-03-03T12:27:51.580Z,43.91
2023-03-03T12:30:05.184Z,43.05
2023-03-03T12:32:14.021Z,42.56
2023-03-03T12:34:23.504Z,43.06
2023-03-03T12:36:34.893Z,42.99
2023-03-03T12:38:49.450Z,42.75
2023-03-03T12:41:04.098Z,42.81
2023-03-03T12:43:12.560Z,42.99
2023-03-03T12:47:43.082Z,43.53
2023-03-03T12:50:06.534Z,44.15
2023-03-03T12:52:13.124Z,43.90
2023-03-03T12:54:23.237Z,43.57
2023-03-03T12:56:28.975Z,43.29
2023-03-03T12:58:40.065Z,43.13
2023-03-03T13:00:48.491Z,43.69
2023-03-03T13:03:01.359Z,43.58
2023-03-03T13:05:22.782Z,43.60
2023-03-03T13:07:35.968Z,43.98
2023-03-03T13:09:49.701Z,43.97
2023-03-03T13:12:02.108Z,44.30
2023-03-03T13:14:15.680Z,44.59
2023-03-03T13:16:41.156Z,44.81
2023-03-03T13:18:46.008Z,44.31
2023-03-03T13:20:55.900Z,44.97
2023-03-03T13:23:01.684Z,44.32
2023-03-03T13:25:24.866Z,45.05
2023-03-03T13:27:38.005Z,45.07
2023-03-03T13:29:43.748Z,45.31
2023-03-03T13:31:50.867Z,44.77
2023-03-03T13:33:56.835Z,46.05
2023-03-03T13:36:04.060Z,45.65
2023-03-03T13:38:10.336Z,46.40
2023-03-03T13:40:17.420Z,45.71
2023-03-03T13:42:24.626Z,46.00
2023-03-03T13:44:35.986Z,46.04
2023-03-03T13:46:46.213Z,46.62
2023-03-03T13:48:57.119Z,46.74
2023-03-03T13:51:05.632Z,46.23
2023-03-03T13:53:12.174Z,46.11
2023-03-03T13:55:31.608Z,45.55
2023-03-03T13:57:40.132Z,45.73
2023-03-03T13:59:45.853Z,45.59
2023-03-03T14:01:51.894Z,44.46
2023-03-03T14:04:00.123Z,44.75
2023-03-03T14:06:09.200Z,45.76
2023-03-03T14:08:14.332Z,46.58
2023-03-03T14:10:22.597Z,46.41
2023-03-03T14:12:35.039Z,48.05
2023-03-03T14:14:41.720Z,47.61
2023-03-03T14:16:47.503Z,48.60
2023-03-03T14:18:55.608Z,48.74
2023-03-03T14:21:08.236Z,49.32
2023-03-03T14:23:19.517Z,49.21
2023-03-03T14:25:22.061Z,48.69
2023-03-03T14:27:27.190Z,48.39
2023-03-03T14:29:31.294Z,48.22
2023-03-03T14:31:39.755Z,47.91
2023-03-03T14:33:47.880Z,47.47
2023-03-03T14:35:56.431Z,47.71
2023-03-03T14:38:02.660Z,47.45
2023-03-03T14:40:10.913Z,47.42
2023-03-03T14:42:15.977Z,47.62
2023-03-03T14:44:24.523Z,47.47
2023-03-03T14:46:29.633Z,46.96
2023-03-03T14:48:32.812Z,47.16
2023-03-03T14:50:39.938Z,47.15
2023-03-03T14:52:42.871Z,47.61
2023-03-03T14:54:51.132Z,47.07
2023-03-03T14:57:00.568Z,47.24
2023-03-03T14:59:08.919Z,47.17
2023-03-03T15:01:17.503Z,47.48
2023-03-03T15:03:23.538Z,46.44
2023-03-03T15:07:52.485Z,46.68
2023-03-03T15:09:55.122Z,45.95
2023-03-03T15:11:59.474Z,45.91
2023-03-03T15:14:12.692Z,46.02
2023-03-03T15:16:20.493Z,45.52
2023-03-03T15:18:22.915Z,45.67
2023-03-03T15:20:33.784Z,45.61
2023-03-03T15:22:37.060Z,45.92
2023-03-03T15:24:57.052Z,46.05
2023-03-03T15:27:05.760Z,46.27
2023-03-03T15:29:18.014Z,46.43
2023-03-03T15:31:24.730Z,45.82
2023-03-03T15:33:31.220Z,46.27
2023-03-03T15:35:58.043Z,46.18
2023-03-03T15:38:04.436Z,46.43
2023-03-03T15:40:10.320Z,46.91
2023-03-03T15:42:19.046Z,46.72
2023-03-03T15:44:32.260Z,47.41
2023-03-03T15:46:46.305Z,47.58
2023-03-03T15:48:54.479Z,47.46
2023-03-03T15:51:03.052Z,47.36
2023-03-03T15:53:08.635Z,47.57
2023-03-03T15:55:18.481Z,48.29
2023-03-03T15:57:26.816Z,48.06
2023-03-03T15:59:42.521Z,49.13
2023-03-03T16:01:56.277Z,49.43
2023-03-03T16:04:04.057Z,49.72
2023-03-03T16:06:10.551Z,49.69
2023-03-03T16:08:19.793Z,49.54
2023-03-03T16:10:28.947Z,49.68
2023-03-03T16:12:36.346Z,50.08
2023-03-03T16:14:43.847Z,50.24
2023-03-03T16:16:54.816Z,49.84
2023-03-03T16:19:05.234Z,49.58
2023-03-03T16:21:18.531Z,50.07
2023-03-03T16:23:25.364Z,50.24
2023-03-03T16:25:43.688Z,50.32
2023-03-03T16:27:47.540Z,49.76
2023-03-03T16:30:04.513Z,49.80
2023-03-03T16:32:12.268Z,50.60
2023-03-03T16:34:26.041Z,50.01
2023-03-03T16:36:29.194Z,50.46
2023-03-03T16:38:37.847Z,50.26
2023-03-03T16:40:44.565Z,50.20
2023-03-03T16:42:50.258Z,50.41
2023-03-03T16:44:57.501Z,50.43
2023-03-03T16:47:18.197Z,50.51
2023-03-03T16:49:23.966Z,50.67
2023-03-03T16:51:32.365Z,50.50
2023-03-03T16:53:39.341Z,50.59
2023-03-03T16:55:47.813Z,50.84
2023-03-03T16:57:53.479Z,50.39
2023-03-03T17:00:06.699Z,50.04
2023-03-03T17:02:19.285Z,50.58
2023-03-03T17:04:32.522Z,50.56
2023-03-03T17:06:38.273Z,49.70
2023-03-03T17:08:52.520Z,49.47
2023-03-03T17:11:00.875Z,49.48
2023-03-03T17:13:07.434Z,48.61
2023-03-03T17:15:20.541Z,48.62
2023-03-03T17:17:26.097Z,48.28
2023-03-03T17:19:40.508Z,48.96
2023-03-03T17:21:49.126Z,48.39
2023-03-03T17:24:04.727Z,48.98
2023-03-03T17:26:13.693Z,49.23
2023-03-03T17:28:19.547Z,49.12
2023-03-03T17:30:28.857Z,49.09
2023-03-03T17:32:37.209Z,49.41
2023-03-03T17:34:42.238Z,49.11
2023-03-03T17:36:48.990Z,49.24
2023-03-03T17:38:55.677Z,48.82
2023-03-03T17:41:03.915Z,48.52
2023-03-03T17:43:09.473Z,48.33
2023-03-03T17:45:29.413Z,48.39
2023-03-03T17:47:36.119Z,48.16
2023-03-03T17:49:41.920Z,48.94
2023-03-03T17:51:58.671Z,48.13
2023-03-03T17:54:11.031Z,47.92
2023-03-03T17:56:19.577Z,48.11
2023-03-03T17:58:34.252Z,47.92
2023-03-03T18:00:42.850Z,47.75
2023-03-03T18:02:51.533Z,47.66
2023-03-03T18:05:16.616Z,47.94
2023-03-03T18:07:31.098Z,48.07
2023-03-03T18:09:44.694Z,48.30
2023-03-03T18:11:51.468Z,48.07
2023-03-03T18:13:58.095Z,48.37
2023-03-03T18:16:12.141Z,48.88
2023-03-03T18:18:20.780Z,48.37
2023-03-03T18:20:26.717Z,48.52
2023-03-03T18:22:32.738Z,48.96
2023-03-03T18:24:38.726Z,48.86
2023-03-03T18:26:42.287Z,48.78
2023-03-03T18:28:49.788Z,48.94
2023-03-03T18:30:57.663Z,48.59
2023-03-03T18:33:06.516Z,48.93
2023-03-03T18:35:25.447Z,48.87
2023-03-03T18:37:31.720Z,49.25
2023-03-03T18:39:41.234Z,49.19
2023-03-03T18:41:49.478Z,49.16
2023-03-03T18:43:57.899Z,48.99
2023-03-03T18:46:00.309Z,49.05
2023-03-03T18:48:08.641Z,49.23
2023-03-03T18:50:16.763Z,49.73
2023-03-03T18:52:23.382Z,49.45
2023-03-03T18:54:31.439Z,49.00
2023-03-03T18:56:43.483Z,50.00
2023-03-03T18:58:45.666Z,50.06
2023-03-03T19:00:52.847Z,49.46
2023-03-03T19:02:57.748Z,50.28
2023-03-03T19:05:26.431Z,50.06
2023-03-03T19:07:44.051Z,50.11
2023-03-03T19:09:52.753Z,50.06
2023-03-03T19:11:56.929Z,50.00
2023-03-03T19:14:05.158Z,50.08
2023-03-03T19:16:11.551Z,50.34
2023-03-03T19:18:20.240Z,50.56
2023-03-03T19:20:24.378Z,50.42
2023-03-03T19:22:30.142Z,50.17
2023-03-03T19:24:34.882Z,50.36
2023-03-03T19:26:47.234Z,50.10
2023-03-03T19:28:58.917Z,49.89
2023-03-03T19:31:05.106Z,49.79
2023-03-03T19:33:13.128Z,49.86
2023-03-03T19:35:21.694Z,49.21
2023-03-03T19:39:50.358Z,48.74
2023-03-03T19:41:55.912Z,49.02
2023-03-03T19:44:06.583Z,48.77
2023-03-03T19:46:12.336Z,48.37
2023-03-03T19:48:19.759Z,49.02
2023-03-03T19:50:26.512Z,49.02
2023-03-03T19:52:38.410Z,48.45
2023-03-03T19:54:44.476Z,48.41
2023-03-03T19:56:48.754Z,47.88
2023-03-03T19:59:02.242Z,48.39
2023-03-03T20:01:08.988Z,48.30
2023-03-03T20:03:37.075Z,48.49
2023-03-03T20:05:47.194Z,48.52
2023-03-03T20:07:58.926Z,48.36
2023-03-03T20:10:11.637Z,49.03
2023-03-03T20:12:17.285Z,48.61
2023-03-03T20:14:21.157Z,48.33
2023-03-03T20:16:40.936Z,48.19
2023-03-03T20:18:58.950Z,48.23
2023-03-03T20:21:02.878Z,47.95
2023-03-03T20:23:06.051Z,47.85
2023-03-03T20:25:14.861Z,47.11
2023-03-03T20:27:23.601Z,47.22
2023-03-03T20:29:34.618Z,46.57
2023-03-03T20:31:41.288Z,46.21
2023-03-03T20:33:48.352Z,46.33
2023-03-03T20:35:58.974Z,46.93
2023-03-03T20:38:08.572Z,45.92
2023-03-03T20:40:20.509Z,46.11
2023-03-03T20:42:25.448Z,46.11
2023-03-03T20:44:34.021Z,46.72
2023-03-03T20:46:39.773Z,46.25
2023-03-03T20:48:44.846Z,46.27
2023-03-03T20:50:59.753Z,47.15
2023-03-03T20:53:08.375Z,46.86
2023-03-03T20:55:19.709Z,47.28
2023-03-03T20:57:34.112Z,46.60
2023-03-03T20:59:44.498Z,46.41
2023-03-03T21:01:58.367Z,46.51
2023-03-03T21:04:06.924Z,46.70
2023-03-03T21:06:15.399Z,46.64
2023-03-03T21:08:17.753Z,46.52
2023-03-03T21:10:26.754Z,46.08
2023-03-03T21:12:32.409Z,46.56
2023-03-03T21:14:36.855Z,46.10
2023-03-03T21:16:42.466Z,46.42
2023-03-03T21:19:00.300Z,46.57
2023-03-03T21:21:04.694Z,46.23
2023-03-03T21:23:12.747Z,46.58
2023-03-03T21:25:22.634Z,46.55
2023-03-03T21:27:28.365Z,46.30
2023-03-03T21:29:34.661Z,45.89
2023-03-03T21:31:44.711Z,45.98
2023-03-03T21:33:53.863Z,46.36
2023-03-03T21:35:59.424Z,46.06
2023-03-03T21:38:01.928Z,46.78
2023-03-03T21:40:10.073Z,47.27
2023-03-03T21:42:14.661Z,46.99
2023-03-03T21:44:23.096Z,46.39
2023-03-03T21:46:25.690Z,46.77
2023-03-03T21:48:27.762Z,46.86
2023-03-03T21:50:32.807Z,46.41
2023-03-03T21:52:35.026Z,46.74
2023-03-03T21:54:37.065Z,47.07
2023-03-03T21:56:41.908Z,47.07
2023-03-03T21:58:44.274Z,46.77
2023-03-03T22:00:46.309Z,47.02
2023-03-03T22:02:48.463Z,47.54
2023-03-03T22:04:50.635Z,47.32
2023-03-03T22:06:52.982Z,47.17
2023-03-03T22:08:55.073Z,47.34
2023-03-03T22:10:57.119Z,47.25
2023-03-03T22:12:59.231Z,47.40
2023-03-03T22:15:04.235Z,47.38
2023-03-03T22:17:06.290Z,47.88
2023-03-03T22:19:10.184Z,47.23
2023-03-03T22:21:12.178Z,47.72
2023-03-03T22:23:15.846Z,47.49
2023-03-03T22:25:18.032Z,46.97
2023-03-03T22:27:20.293Z,47.70
2023-03-03T22:29:23.216Z,47.31
2023-03-03T22:31:25.435Z,47.57
2023-03-03T22:33:27.599Z,47.36
2023-03-03T22:35:29.737Z,47.33
2023-03-03T22:37:31.959Z,47.65
2023-03-03T22:39:34.602Z,47.89
2023-03-03T22:41:36.784Z,47.31
2023-03-03T22:43:39.001Z,47.46
2023-03-03T22:45:41.167Z,47.58
2023-03-03T22:47:43.253Z,46.99
2023-03-03T22:49:45.452Z,47.66
2023-03-03T22:51:47.488Z,47.64
2023-03-03T22:53:49.587Z,47.69
2023-03-03T22:55:52.084Z,47.14
2023-03-03T22:57:54.165Z,47.31
2023-03-03T22:59:56.297Z,47.67
2023-03-03T23:01:58.522Z,47.34
2023-03-03T23:04:00.503Z,47.71
2023-03-03T23:06:02.485Z,47.57
2023-03-03T23:08:07.089Z,47.74
2023-03-03T23:10:11.203Z,48.00
2023-03-03T23:12:13.292Z,47.35
2023-03-03T23:14:15.477Z,47.41
2023-03-03T23:16:19.563Z,47.78
2023-03-03T23:18:21.562Z,47.61
2023-03-03T23:20:28.743Z,48.29
2023-03-03T23:22:31.692Z,47.88
2023-03-03T23:24:35.985Z,47.76
2023-03-03T23:26:39.721Z,47.68
2023-03-03T23:28:41.711Z,48.19
2023-03-03T23:30:44.167Z,48.36
2023-03-03T23:32:48.410Z,48.36
2023-03-03T23:35:04.530Z,48.32
2023-03-03T23:37:06.946Z,48.25
2023-03-03T23:39:09.823Z,47.86
2023-03-03T23:41:11.964Z,48.08
2023-03-03T23:43:15.257Z,48.28
2023-03-03T23:45:18.113Z,48.11
2023-03-03T23:47:20.339Z,48.43
2023-03-03T23:49:27.358Z,48.33
2023-03-03T23:51:29.474Z,48.71
2023-03-03T23:53:31.725Z,48.17
2023-03-03T23:55:34.153Z,47.93
2023-03-03T23:57:36.206Z,48.27
2023-03-03T23:59:38.285Z,48.32
